createdAt,value
2019-03-24T00:01:24.955Z,15.33
2019-03-24T00:05:30.367Z,10.67
2019-03-24T00:09:35.904Z,12.97
2019-03-24T00:13:41.348Z,12.67
2019-03-24T00:17:46.930Z,10.80
2019-03-24T00:21:52.365Z,7.93
2019-03-24T00:25:57.804Z,9.73
2019-03-24T00:30:03.506Z,6.30
2019-03-24T00:34:08.909Z,6.97
2019-03-24T00:38:14.806Z,8.20
2019-03-24T00:42:20.272Z,12.33
2019-03-24T00:46:25.824Z,9.53
2019-03-24T00:50:31.635Z,7.97
2019-03-24T00:54:37.326Z,12.97
2019-03-24T00:58:43.014Z,10.77
2019-03-24T01:02:48.423Z,10.13
2019-03-24T01:06:54.790Z,12.47
2019-03-24T01:11:00.299Z,8.00
2019-03-24T01:15:06.886Z,8.93
2019-03-24T01:19:12.483Z,8.13
2019-03-24T01:23:18.103Z,8.10
2019-03-24T01:27:23.557Z,8.30
2019-03-24T01:31:29.173Z,8.80
2019-03-24T01:35:34.779Z,9.87
2019-03-24T01:39:40.215Z,8.30
2019-03-24T01:43:46.690Z,8.80
2019-03-24T01:47:52.139Z,11.73
2019-03-24T01:51:57.612Z,9.60
2019-03-24T01:56:03.045Z,9.50
2019-03-24T02:00:09.261Z,12.87
2019-03-24T02:04:15.051Z,11.07
2019-03-24T02:08:20.457Z,6.90
2019-03-24T02:12:26.045Z,6.93
2019-03-24T02:16:31.806Z,10.00
2019-03-24T02:20:37.262Z,10.33
2019-03-24T02:24:42.823Z,14.10
2019-03-24T02:28:48.259Z,6.83
2019-03-24T02:32:54.081Z,5.43
2019-03-24T02:36:59.486Z,8.90
2019-03-24T02:41:05.129Z,6.60
2019-03-24T02:45:10.928Z,8.30
2019-03-24T02:49:16.354Z,14.83
2019-03-24T02:53:21.829Z,8.57
2019-03-24T02:57:27.500Z,8.40
2019-03-24T03:01:32.947Z,7.70
2019-03-24T03:05:38.504Z,8.10
2019-03-24T03:09:43.960Z,10.03
2019-03-24T03:13:49.534Z,9.80
2019-03-24T03:17:54.985Z,9.90
2019-03-24T03:22:00.383Z,8.60
2019-03-24T03:26:05.995Z,5.97
2019-03-24T03:30:12.357Z,6.17
2019-03-24T03:34:17.793Z,9.43
2019-03-24T03:38:23.626Z,9.97
2019-03-24T03:42:29.122Z,17.80
2019-03-24T03:46:34.669Z,8.73
2019-03-24T03:50:40.445Z,10.33
2019-03-24T03:54:45.900Z,9.40
2019-03-24T03:58:51.433Z,8.50
2019-03-24T04:02:56.866Z,19.60
2019-03-24T04:07:02.422Z,8.40
2019-03-24T04:11:07.958Z,7.50
2019-03-24T04:15:13.655Z,10.73
2019-03-24T04:19:19.201Z,7.93
2019-03-24T04:23:24.784Z,11.70
2019-03-24T04:27:30.218Z,9.63
2019-03-24T04:31:36.096Z,11.73
2019-03-24T04:35:41.678Z,15.97
2019-03-24T04:39:47.107Z,8.50
2019-03-24T04:43:52.750Z,9.97
2019-03-24T04:47:58.197Z,9.50
2019-03-24T04:52:04.808Z,10.43
2019-03-24T04:56:10.237Z,7.83
2019-03-24T05:00:18.811Z,9.97
2019-03-24T05:04:24.323Z,12.73
2019-03-24T05:08:30.808Z,10.00
2019-03-24T05:12:36.406Z,7.30
2019-03-24T05:16:41.881Z,11.57
2019-03-24T05:20:47.737Z,13.00
2019-03-24T05:24:53.386Z,6.60
2019-03-24T05:28:58.813Z,12.60
2019-03-24T05:33:04.387Z,8.37
2019-03-24T05:37:09.800Z,10.90
2019-03-24T05:41:15.713Z,11.77
2019-03-24T05:45:21.146Z,9.70
2019-03-24T05:49:26.729Z,10.10
2019-03-24T05:53:32.138Z,9.43
2019-03-24T05:57:37.777Z,11.63
2019-03-24T06:01:45.711Z,12.30
2019-03-24T06:05:51.541Z,10.13
2019-03-24T06:09:57.225Z,10.27
2019-03-24T06:14:03.360Z,15.13
2019-03-24T06:18:09.291Z,9.80
2019-03-24T06:22:14.790Z,8.20
2019-03-24T06:26:20.497Z,10.90
2019-03-24T06:30:26.027Z,12.70
2019-03-24T06:34:31.627Z,13.00
2019-03-24T06:38:37.090Z,7.13
2019-03-24T06:42:42.584Z,11.80
2019-03-24T06:46:48.178Z,15.05
2019-03-24T06:50:53.588Z,12.27
2019-03-24T06:54:59.049Z,13.23
2019-03-24T06:59:04.630Z,11.10
2019-03-24T07:03:10.131Z,12.70
2019-03-24T07:07:15.623Z,16.43
2019-03-24T07:11:21.119Z,9.07
2019-03-24T07:15:26.593Z,10.00
2019-03-24T07:19:32.130Z,7.67
2019-03-24T07:23:37.562Z,10.03
2019-03-24T07:27:43.123Z,8.10
2019-03-24T07:31:48.712Z,6.90
2019-03-24T07:35:54.504Z,7.40
2019-03-24T07:40:00.245Z,6.20
2019-03-24T07:44:06.010Z,6.47
2019-03-24T07:48:19.003Z,7.43
2019-03-24T07:52:18.734Z,6.93
2019-03-24T07:56:24.403Z,7.10
2019-03-24T08:00:39.807Z,4.40
2019-03-24T08:04:45.589Z,7.20
2019-03-24T08:08:51.099Z,10.27
2019-03-24T08:12:56.759Z,10.77
2019-03-24T08:17:02.292Z,7.07
2019-03-24T08:21:07.778Z,7.10
2019-03-24T08:25:13.311Z,6.97
2019-03-24T08:29:18.914Z,6.17
2019-03-24T08:33:24.362Z,7.93
2019-03-24T08:37:29.901Z,6.23
2019-03-24T08:41:35.457Z,6.47
2019-03-24T08:45:41.046Z,11.30
2019-03-24T08:49:46.854Z,8.57
2019-03-24T08:53:52.392Z,5.73
2019-03-24T08:57:57.927Z,9.07
2019-03-24T09:02:03.452Z,9.53
2019-03-24T09:06:09.859Z,9.00
2019-03-24T09:10:15.798Z,7.03
2019-03-24T09:14:21.336Z,8.37
2019-03-24T09:18:26.952Z,9.00
2019-03-24T09:22:32.369Z,9.13
2019-03-24T09:26:37.768Z,8.70
2019-03-24T09:30:43.339Z,10.47
2019-03-24T09:34:48.800Z,8.97
2019-03-24T09:38:54.268Z,9.67
2019-03-24T09:43:01.155Z,11.83
2019-03-24T09:47:06.744Z,10.90
2019-03-24T09:51:12.914Z,7.80
2019-03-24T09:55:18.458Z,9.77
2019-03-24T09:59:23.880Z,9.20
2019-03-24T10:03:29.360Z,9.50
2019-03-24T10:07:34.972Z,12.33
2019-03-24T10:11:40.422Z,10.47
2019-03-24T10:15:45.991Z,9.93
2019-03-24T10:19:51.542Z,12.43
2019-03-24T10:23:57.093Z,11.20
2019-03-24T10:28:02.703Z,8.13
2019-03-24T10:32:08.174Z,8.70
2019-03-24T10:36:13.645Z,8.63
2019-03-24T10:40:28.155Z,10.60
2019-03-24T10:44:26.783Z,9.27
2019-03-24T10:48:33.828Z,13.03
2019-03-24T10:52:40.979Z,7.70
2019-03-24T10:56:46.422Z,12.17
2019-03-24T11:00:51.858Z,7.50
2019-03-24T11:04:58.463Z,10.30
2019-03-24T11:09:04.664Z,9.20
2019-03-24T11:13:10.170Z,10.47
2019-03-24T11:17:15.879Z,8.27
2019-03-24T11:21:22.037Z,7.67
2019-03-24T11:25:28.383Z,8.07
2019-03-24T11:29:35.297Z,8.30
2019-03-24T11:33:40.710Z,6.80
2019-03-24T11:37:46.290Z,8.77
2019-03-24T11:41:55.473Z,9.10
2019-03-24T11:46:01.130Z,11.23
2019-03-24T11:50:07.107Z,7.87
2019-03-24T11:54:12.657Z,6.07
2019-03-24T11:58:18.739Z,6.90
2019-03-24T12:02:26.086Z,9.60
2019-03-24T12:06:31.554Z,8.70
2019-03-24T12:10:37.328Z,8.77
2019-03-24T12:14:42.908Z,9.30
2019-03-24T12:18:48.318Z,7.50
2019-03-24T12:22:53.759Z,7.47
2019-03-24T12:26:59.292Z,7.20
2019-03-24T12:31:04.880Z,8.90
2019-03-24T12:35:13.372Z,6.73
2019-03-24T12:39:19.611Z,5.83
2019-03-24T12:43:25.073Z,6.50
2019-03-24T12:47:30.885Z,7.23
2019-03-24T12:51:36.430Z,6.30
2019-03-24T12:55:41.889Z,7.83
2019-03-24T12:59:47.320Z,6.00
2019-03-24T13:03:52.733Z,5.20
2019-03-24T13:08:01.389Z,5.67
2019-03-24T13:12:06.929Z,6.07
2019-03-24T13:16:12.570Z,5.00
2019-03-24T13:20:26.812Z,6.30
2019-03-24T13:24:25.193Z,9.33
2019-03-24T13:28:30.680Z,4.80
2019-03-24T13:32:36.574Z,6.63
2019-03-24T13:36:42.342Z,5.20
2019-03-24T13:40:47.814Z,6.70
2019-03-24T13:44:53.443Z,5.67
2019-03-24T13:48:58.861Z,5.10
2019-03-24T13:53:04.788Z,5.17
2019-03-24T13:57:10.224Z,4.03
2019-03-24T14:01:15.994Z,4.00
2019-03-24T14:05:21.640Z,4.10
2019-03-24T14:09:27.066Z,4.83
2019-03-24T14:13:32.521Z,4.60
2019-03-24T14:17:38.008Z,5.17
2019-03-24T14:21:43.517Z,4.07
2019-03-24T14:25:49.083Z,3.70
2019-03-24T14:29:54.870Z,4.90
2019-03-24T14:34:00.601Z,4.30
2019-03-24T14:38:06.402Z,4.63
2019-03-24T14:42:11.818Z,3.90
2019-03-24T14:46:17.308Z,4.43
2019-03-24T14:50:22.857Z,4.30
2019-03-24T14:54:28.313Z,6.60
2019-03-24T14:58:34.365Z,5.17
2019-03-24T15:02:40.917Z,5.13
2019-03-24T15:06:46.633Z,4.93
2019-03-24T15:10:52.283Z,4.80
2019-03-24T15:14:58.080Z,4.50
2019-03-24T15:19:03.506Z,4.63
2019-03-24T15:23:09.044Z,5.30
2019-03-24T15:27:14.470Z,7.53
2019-03-24T15:31:20.094Z,4.10
2019-03-24T15:35:25.563Z,6.80
2019-03-24T15:39:31.206Z,5.43
2019-03-24T15:43:36.723Z,5.07
2019-03-24T15:47:42.234Z,7.00
2019-03-24T15:51:47.922Z,6.07
2019-03-24T15:55:53.691Z,5.23
2019-03-24T15:59:59.267Z,7.30
2019-03-24T16:04:04.790Z,4.90
2019-03-24T16:08:11.381Z,7.50
2019-03-24T16:12:16.822Z,6.20
2019-03-24T16:16:23.157Z,4.50
2019-03-24T16:20:29.419Z,4.07
2019-03-24T16:24:34.946Z,4.93
2019-03-24T16:28:40.427Z,3.17
2019-03-24T16:32:45.964Z,4.33
2019-03-24T16:36:51.438Z,6.83
2019-03-24T16:40:57.279Z,3.40
2019-03-24T16:45:03.005Z,3.97
2019-03-24T16:49:08.484Z,3.03
2019-03-24T16:53:14.012Z,4.50
2019-03-24T16:57:19.472Z,5.30
2019-03-24T17:01:25.078Z,5.63
2019-03-24T17:05:30.688Z,4.13
2019-03-24T17:09:36.200Z,4.70
2019-03-24T17:13:41.691Z,3.73
2019-03-24T17:17:48.823Z,4.10
2019-03-24T17:21:55.114Z,4.17
2019-03-24T17:26:01.236Z,7.93
2019-03-24T17:30:11.129Z,5.60
2019-03-24T17:34:16.639Z,4.90
2019-03-24T17:38:22.171Z,4.37
2019-03-24T17:42:27.595Z,4.50
2019-03-24T17:46:34.087Z,6.00
2019-03-24T17:50:39.659Z,5.00
2019-03-24T17:54:45.342Z,4.43
2019-03-24T17:58:50.793Z,4.00
2019-03-24T18:02:56.406Z,5.10
2019-03-24T18:07:02.157Z,6.63
2019-03-24T18:11:07.709Z,4.27
2019-03-24T18:15:13.499Z,5.53
2019-03-24T18:19:19.079Z,7.03
2019-03-24T18:23:24.691Z,5.70
2019-03-24T18:27:30.289Z,9.27
2019-03-24T18:31:35.712Z,8.10
2019-03-24T18:35:41.354Z,10.37
2019-03-24T18:39:46.804Z,7.17
2019-03-24T18:43:52.308Z,10.40
2019-03-24T18:47:57.822Z,12.93
2019-03-24T18:52:03.340Z,10.53
2019-03-24T18:56:08.940Z,9.70
2019-03-24T19:00:15.255Z,9.27
2019-03-24T19:04:21.142Z,8.07
2019-03-24T19:08:26.592Z,7.63
2019-03-24T19:12:32.058Z,8.27
2019-03-24T19:16:38.734Z,6.33
2019-03-24T19:20:44.178Z,6.03
2019-03-24T19:25:00.804Z,8.08
2019-03-24T19:29:06.313Z,8.57
2019-03-24T19:33:11.898Z,6.90
2019-03-24T19:37:18.379Z,11.17
2019-03-24T19:41:29.907Z,6.07
2019-03-24T19:45:36.442Z,5.73
2019-03-24T19:49:42.411Z,9.70
2019-03-24T19:53:48.325Z,8.13
2019-03-24T19:58:04.881Z,7.87
2019-03-24T20:02:10.333Z,6.10
2019-03-24T20:06:16.189Z,7.53
2019-03-24T20:10:24.167Z,6.10
2019-03-24T20:14:32.051Z,7.97
2019-03-24T20:18:37.538Z,5.90
2019-03-24T20:22:43.046Z,7.70
2019-03-24T20:26:49.634Z,6.70
2019-03-24T20:30:57.405Z,7.67
2019-03-24T20:35:02.898Z,6.07
2019-03-24T20:39:14.669Z,8.77
2019-03-24T20:43:20.237Z,7.53
2019-03-24T20:47:26.189Z,9.57
2019-03-24T20:51:31.651Z,10.43
2019-03-24T20:55:39.198Z,7.40
2019-03-24T20:59:44.767Z,9.53
2019-03-24T21:03:50.187Z,7.60
2019-03-24T21:07:55.633Z,9.07
2019-03-24T21:12:03.222Z,10.80
2019-03-24T21:16:17.588Z,9.20
2019-03-24T21:20:23.456Z,8.43
2019-03-24T21:24:28.885Z,8.50
2019-03-24T21:28:34.474Z,7.13
2019-03-24T21:32:40.233Z,6.70
2019-03-24T21:36:45.703Z,7.47
2019-03-24T21:40:51.284Z,7.10
2019-03-24T21:44:56.837Z,5.00
2019-03-24T21:49:02.300Z,6.80
2019-03-24T21:53:40.342Z,6.87
2019-03-24T21:57:41.768Z,7.43
2019-03-24T22:01:57.952Z,10.17
2019-03-24T22:06:10.149Z,6.33
2019-03-24T22:10:21.386Z,7.13
2019-03-24T22:14:27.003Z,9.30
2019-03-24T22:18:32.436Z,7.13
2019-03-24T22:22:39.822Z,13.10
2019-03-24T22:26:46.793Z,7.47
2019-03-24T22:30:52.268Z,7.30
2019-03-24T22:34:57.851Z,8.50
2019-03-24T22:39:04.208Z,11.13
2019-03-24T22:43:09.675Z,12.30
2019-03-24T22:47:15.258Z,10.20
2019-03-24T22:51:20.706Z,11.97
2019-03-24T22:55:26.179Z,12.23
2019-03-24T22:59:32.071Z,11.97
2019-03-24T23:03:37.661Z,9.33
2019-03-24T23:07:43.240Z,13.20
2019-03-24T23:11:48.698Z,11.90
2019-03-24T23:15:54.150Z,13.17
2019-03-24T23:19:59.958Z,14.80
2019-03-24T23:24:15.498Z,13.13
2019-03-24T23:28:14.627Z,12.80
2019-03-24T23:32:20.089Z,12.83
2019-03-24T23:36:27.902Z,12.50
2019-03-24T23:40:33.391Z,11.50
2019-03-24T23:44:39.045Z,12.93
2019-03-24T23:48:44.495Z,9.80
2019-03-24T23:52:49.927Z,16.00
2019-03-24T23:56:57.230Z,16.70
